Time;durP1;ratioP1;P1;durP2;ratioP2;P2;SDS_P1;SDS_P2;PMS_P1;PMS_P2;Temp;Humidity;BMP_temperature;BMP_pressure;BME280_temperature;BME280_humidity;BME280_pressure;Samples;Min_cycle;Max_cycle;Signal;HPM_P1;HPM_P2
2023/02/01 00:00:01;;;;;;;26.50;5.43;;;8.10;99.90;;;;;;4946276;28;20296;-78
2023/02/01 00:02:28;;;;;;;20.30;5.03;;;8.00;99.90;;;;;;4946332;28;20244;-81
2023/02/01 00:04:55;;;;;;;23.73;5.27;;;8.00;99.90;;;;;;4935659;28;20641;-82
2023/02/01 00:07:22;;;;;;;25.90;5.27;;;8.00;99.90;;;;;;4927669;29;20627;-80
2023/02/01 00:09:50;;;;;;;23.77;5.00;;;8.00;99.90;;;;;;4927169;29;20854;-80
2023/02/01 00:12:17;;;;;;;26.93;5.03;;;8.00;99.90;;;;;;4927173;29;20698;-81
2023/02/01 00:14:44;;;;;;;25.27;5.27;;;8.10;99.90;;;;;;4926848;29;20377;-80
2023/02/01 00:17:11;;;;;;;21.37;5.53;;;8.10;99.90;;;;;;4927237;29;20289;-81
2023/02/01 00:19:38;;;;;;;25.03;4.87;;;8.00;99.90;;;;;;4926634;29;20213;-81
2023/02/01 00:22:05;;;;;;;18.97;5.73;;;8.00;99.90;;;;;;4927320;29;20769;-80
2023/02/01 00:24:32;;;;;;;24.47;5.53;;;8.00;99.90;;;;;;4927522;29;20232;-79
2023/02/01 00:27:00;;;;;;;25.60;6.00;;;8.00;99.90;;;;;;4927070;29;20216;-80
2023/02/01 00:29:27;;;;;;;33.63;5.60;;;8.00;99.90;;;;;;4927189;29;20236;-81
2023/02/01 00:31:54;;;;;;;21.27;5.20;;;8.00;99.90;;;;;;4927446;29;20233;-78
2023/02/01 00:34:21;;;;;;;22.47;6.63;;;8.00;99.90;;;;;;4927060;29;20915;-80
2023/02/01 00:36:48;;;;;;;28.17;5.87;;;8.00;99.90;;;;;;4925847;28;20220;-79
2023/02/01 00:39:16;;;;;;;25.37;6.13;;;8.00;99.90;;;;;;4926152;29;20220;-80
2023/02/01 00:41:43;;;;;;;29.43;6.10;;;8.00;99.90;;;;;;4927031;29;20293;-81
2023/02/01 00:44:11;;;;;;;25.00;5.87;;;8.00;99.90;;;;;;4926624;29;20233;-80
2023/02/01 00:46:38;;;;;;;25.80;5.77;;;8.00;99.90;;;;;;4926416;29;20218;-82
2023/02/01 00:49:07;;;;;;;27.37;5.73;;;8.00;99.90;;;;;;4928893;29;20228;-81
2023/02/01 00:51:33;;;;;;;28.00;6.13;;;8.00;99.90;;;;;;4945754;29;20216;-81
2023/02/01 00:54:00;;;;;;;30.87;6.40;;;8.00;99.90;;;;;;4945190;29;20201;-80
2023/02/01 00:56:28;;;;;;;30.97;5.50;;;8.00;99.90;;;;;;4931188;29;20220;-84
2023/02/01 00:58:55;;;;;;;23.40;5.37;;;8.00;99.90;;;;;;4927150;29;20202;-81
2023/02/01 01:01:26;;;;;;;22.33;5.03;;;8.00;99.90;;;;;;4926270;28;20240;-81
2023/02/01 01:03:55;;;;;;;26.23;6.13;;;8.10;99.90;;;;;;4926708;29;20233;-81
2023/02/01 01:06:24;;;;;;;27.23;6.23;;;8.10;99.90;;;;;;4926612;29;20858;-81
2023/02/01 01:08:53;;;;;;;21.13;5.87;;;8.10;99.90;;;;;;4925919;29;20638;-82
2023/02/01 01:11:22;;;;;;;26.40;6.73;;;8.20;99.90;;;;;;4926269;29;20216;-80
2023/02/01 01:13:50;;;;;;;24.00;5.07;;;8.20;99.90;;;;;;4929033;29;20241;-80
2023/02/01 01:16:18;;;;;;;26.63;6.10;;;8.10;99.90;;;;;;4929450;29;20538;-80
2023/02/01 01:18:47;;;;;;;23.73;5.37;;;8.10;99.90;;;;;;4929936;29;20213;-81
2023/02/01 01:21:15;;;;;;;24.07;5.37;;;8.20;99.90;;;;;;4929891;29;20202;-82
2023/02/01 01:23:43;;;;;;;29.70;5.97;;;8.20;99.90;;;;;;4929870;29;20674;-80
2023/02/01 01:26:13;;;;;;;24.77;5.07;;;8.20;99.90;;;;;;4930131;29;20601;-80
2023/02/01 01:28:40;;;;;;;27.37;5.07;;;8.20;99.90;;;;;;4930370;28;20244;-79
2023/02/01 01:31:09;;;;;;;23.57;5.10;;;8.20;99.90;;;;;;4930341;29;20216;-79
2023/02/01 01:33:36;;;;;;;29.60;6.70;;;8.20;99.90;;;;;;4930189;29;20494;-82
2023/02/01 01:36:06;;;;;;;26.07;5.17;;;8.20;99.90;;;;;;4930318;29;20674;-79
2023/02/01 01:38:33;;;;;;;26.80;6.40;;;8.20;99.90;;;;;;4929408;29;20202;-79
2023/02/01 01:40:59;;;;;;;23.03;5.67;;;8.20;99.90;;;;;;4929821;29;20285;-80
2023/02/01 01:43:46;;;;;;;27.63;5.13;;;8.10;99.90;;;;;;4929829;29;20240;-81
2023/02/01 01:46:17;;;;;;;26.47;5.43;;;8.10;99.90;;;;;;4930552;29;20206;-80
2023/02/01 01:48:44;;;;;;;28.93;5.97;;;8.20;99.90;;;;;;4930327;29;20231;-84
2023/02/01 01:51:14;;;;;;;28.80;5.93;;;8.10;99.90;;;;;;4929797;29;20214;-81
2023/02/01 01:53:49;;;;;;;34.13;6.07;;;8.20;99.90;;;;;;4929487;29;20209;-81
2023/02/01 01:56:16;;;;;;;26.63;5.90;;;8.20;99.90;;;;;;4928900;29;20213;-81
2023/02/01 01:58:43;;;;;;;31.33;6.50;;;8.10;99.90;;;;;;4929141;29;20208;-81
2023/02/01 02:01:10;;;;;;;28.70;6.97;;;8.10;99.90;;;;;;4929586;29;20256;-82
2023/02/01 02:03:41;;;;;;;33.73;5.87;;;8.10;99.90;;;;;;4928627;29;20657;-84
2023/02/01 02:06:17;;;;;;;25.47;5.80;;;8.10;99.90;;;;;;4948379;29;20358;-82
2023/02/01 02:08:44;;;;;;;31.87;6.17;;;8.10;99.90;;;;;;4948202;29;20876;-82
2023/02/01 02:11:17;;;;;;;30.83;5.87;;;8.10;99.90;;;;;;4939838;29;20414;-81
2023/02/01 02:13:49;;;;;;;27.47;7.17;;;8.10;99.90;;;;;;4930125;29;20209;-83
2023/02/01 02:16:28;;;;;;;22.30;6.23;;;8.10;99.90;;;;;;4930507;28;20217;-82
2023/02/01 02:19:10;;;;;;;31.20;5.60;;;8.10;99.90;;;;;;4928440;29;20886;-82
2023/02/01 02:21:57;;;;;;;39.40;7.53;;;8.00;99.90;;;;;;4928531;29;20198;-81
2023/02/01 02:24:54;;;;;;;39.27;6.60;;;8.10;99.90;;;;;;4927121;29;20288;-80
2023/02/01 02:27:27;;;;;;;26.93;6.60;;;8.00;99.90;;;;;;4928291;29;20553;-79
2023/02/01 02:30:29;;;;;;;22.87;6.60;;;8.00;99.90;;;;;;4927989;29;20330;-81
2023/02/01 02:33:26;;;;;;;30.13;6.13;;;8.00;99.90;;;;;;4928213;29;20204;-80
2023/02/01 02:36:00;;;;;;;23.57;5.73;;;8.00;99.90;;;;;;4927986;29;20205;-81
2023/02/01 02:38:34;;;;;;;27.10;5.40;;;8.00;99.90;;;;;;4927823;29;20782;-80
2023/02/01 02:41:09;;;;;;;27.40;5.80;;;8.00;99.90;;;;;;4928017;29;20220;-81
2023/02/01 02:49:29;;;;;;;25.80;6.43;;;7.90;99.90;;;;;;4928572;29;20217;-79
2023/02/01 02:54:51;;;;;;;25.13;5.60;;;7.80;99.90;;;;;;4927235;29;20257;-82
2023/02/01 03:05:43;;;;;;;25.67;6.50;;;7.80;99.90;;;;;;4928485;29;20233;-80
2023/02/01 03:08:17;;;;;;;29.73;6.40;;;7.80;99.90;;;;;;4927855;29;20321;-81
2023/02/01 03:10:54;;;;;;;25.47;6.07;;;7.80;99.90;;;;;;4928457;29;20944;-79
2023/02/01 03:13:30;;;;;;;31.93;5.37;;;7.80;99.90;;;;;;4928208;29;20288;-79
2023/02/01 03:16:03;;;;;;;21.07;5.73;;;7.70;99.90;;;;;;4928587;29;20201;-78
2023/02/01 03:18:34;;;;;;;23.80;5.80;;;7.70;99.90;;;;;;4928386;29;20234;-80
2023/02/01 03:21:06;;;;;;;24.20;6.70;;;7.70;99.90;;;;;;4928037;29;20214;-79
2023/02/01 03:23:38;;;;;;;28.53;6.17;;;7.80;99.90;;;;;;4928032;29;20216;-81
2023/02/01 03:26:08;;;;;;;33.60;6.13;;;7.80;99.90;;;;;;4927277;29;20218;-80
2023/02/01 03:28:37;;;;;;;25.33;6.07;;;7.80;99.90;;;;;;4926869;29;20232;-80
2023/02/01 03:31:04;;;;;;;29.60;6.73;;;7.80;99.90;;;;;;4928544;29;20206;-79
2023/02/01 03:33:33;;;;;;;22.43;7.07;;;7.90;99.90;;;;;;4927929;29;20245;-79
2023/02/01 03:36:14;;;;;;;26.77;5.40;;;7.90;99.90;;;;;;4926721;29;20206;-79
2023/02/01 03:38:50;;;;;;;31.37;5.27;;;7.90;99.90;;;;;;4927871;29;20617;-80
2023/02/01 03:41:23;;;;;;;30.07;5.97;;;7.90;99.90;;;;;;4928347;29;20205;-80
2023/02/01 03:43:56;;;;;;;26.93;6.40;;;7.80;99.90;;;;;;4927279;29;20990;-80
2023/02/01 03:46:34;;;;;;;24.37;5.87;;;7.80;99.90;;;;;;4927958;29;20198;-79
2023/02/01 03:49:04;;;;;;;25.30;6.57;;;7.70;99.90;;;;;;4926723;29;20965;-78
2023/02/01 03:51:33;;;;;;;28.20;6.70;;;7.70;99.90;;;;;;4926299;29;20234;-79
2023/02/01 03:54:04;;;;;;;29.40;6.13;;;7.70;99.90;;;;;;4926927;29;20297;-80
2023/02/01 03:56:32;;;;;;;22.10;5.37;;;7.70;99.90;;;;;;4926515;29;20198;-80
2023/02/01 03:58:59;;;;;;;22.90;6.97;;;7.70;99.90;;;;;;4927859;29;20202;-79
2023/02/01 04:01:28;;;;;;;30.73;6.23;;;7.70;99.90;;;;;;4927842;29;20206;-80
2023/02/01 04:03:55;;;;;;;24.00;5.80;;;7.70;99.90;;;;;;4926788;29;20244;-77
2023/02/01 04:06:22;;;;;;;26.07;7.23;;;7.70;99.90;;;;;;4926765;29;20210;-80
2023/02/01 04:08:49;;;;;;;25.93;5.80;;;7.70;99.90;;;;;;4929705;29;20225;-80
2023/02/01 04:11:17;;;;;;;29.50;6.43;;;7.70;99.90;;;;;;4937186;29;20634;-80
2023/02/01 04:13:45;;;;;;;23.67;6.07;;;7.70;99.90;;;;;;4945661;28;20213;-81
2023/02/01 04:16:12;;;;;;;27.60;6.17;;;7.60;99.90;;;;;;4931020;29;20521;-79
2023/02/01 04:18:39;;;;;;;25.27;5.67;;;7.60;99.90;;;;;;4926824;29;20257;-82
2023/02/01 04:21:06;;;;;;;28.17;6.83;;;7.60;99.90;;;;;;4927399;29;20232;-81
2023/02/01 04:23:33;;;;;;;30.83;5.53;;;7.60;99.90;;;;;;4927535;29;20321;-78
2023/02/01 04:26:01;;;;;;;22.33;5.50;;;7.60;99.90;;;;;;4926921;29;20213;-80
2023/02/01 04:28:30;;;;;;;25.80;5.80;;;7.70;99.90;;;;;;4926918;29;20222;-80
2023/02/01 04:30:57;;;;;;;25.77;7.00;;;7.70;99.90;;;;;;4926733;29;20228;-79
2023/02/01 04:33:24;;;;;;;28.20;6.57;;;7.70;99.90;;;;;;4926926;29;20212;-80
2023/02/01 04:35:51;;;;;;;25.93;6.30;;;7.70;99.90;;;;;;4926496;29;20424;-83
2023/02/01 04:38:18;;;;;;;24.30;5.97;;;7.70;99.90;;;;;;4925945;29;20233;-85
2023/02/01 04:40:47;;;;;;;28.43;5.27;;;7.70;99.90;;;;;;4925413;29;20210;-81
2023/02/01 04:43:14;;;;;;;29.93;6.77;;;7.70;99.90;;;;;;4927017;29;20218;-81
2023/02/01 04:45:42;;;;;;;35.87;6.53;;;7.70;99.90;;;;;;4927917;29;20206;-80
2023/02/01 04:48:09;;;;;;;25.30;5.77;;;7.60;99.90;;;;;;4928294;28;20198;-82
2023/02/01 04:50:36;;;;;;;23.97;6.07;;;7.60;99.90;;;;;;4927244;28;20241;-81
2023/02/01 04:53:03;;;;;;;20.30;5.40;;;7.60;99.90;;;;;;4927512;29;20264;-80
2023/02/01 04:55:30;;;;;;;36.07;6.20;;;7.60;99.90;;;;;;4927834;29;20206;-82
2023/02/01 04:57:57;;;;;;;27.63;6.03;;;7.60;99.90;;;;;;4927578;29;20205;-81
2023/02/01 05:00:24;;;;;;;28.03;7.90;;;7.60;99.90;;;;;;4926624;29;20202;-81
2023/02/01 05:02:53;;;;;;;35.57;6.73;;;7.60;99.90;;;;;;4927084;29;20261;-80
2023/02/01 05:05:19;;;;;;;36.27;6.63;;;7.60;99.90;;;;;;4927942;29;20309;-82
2023/02/01 05:07:47;;;;;;;25.80;6.00;;;7.70;99.90;;;;;;4927659;29;20525;-81
2023/02/01 05:10:14;;;;;;;29.33;6.27;;;7.70;99.90;;;;;;4927999;29;20706;-81
2023/02/01 05:15:28;;;;;;;28.77;5.77;;;7.70;99.90;;;;;;4940555;29;20208;-81
2023/02/01 05:17:56;;;;;;;26.60;5.97;;;7.70;99.90;;;;;;4945498;29;20871;-80
2023/02/01 05:20:23;;;;;;;28.47;5.50;;;7.70;99.90;;;;;;4945738;29;20320;-81
2023/02/01 05:22:50;;;;;;;22.47;5.87;;;7.70;99.90;;;;;;4947080;29;20581;-82
2023/02/01 05:25:17;;;;;;;23.63;5.23;;;7.80;99.90;;;;;;4945501;29;20202;-81
2023/02/01 05:27:44;;;;;;;32.63;6.43;;;7.80;99.90;;;;;;4927175;29;20220;-80
2023/02/01 05:30:12;;;;;;;25.40;5.87;;;7.80;99.90;;;;;;4927348;29;20639;-81
2023/02/01 05:32:39;;;;;;;23.97;5.97;;;7.80;99.90;;;;;;4926469;29;20570;-80
2023/02/01 05:35:09;;;;;;;26.70;4.63;;;7.80;99.90;;;;;;4927543;29;20210;-82
2023/02/01 05:37:36;;;;;;;30.43;6.10;;;7.80;99.90;;;;;;4927029;29;20289;-82
2023/02/01 05:40:03;;;;;;;20.37;5.37;;;7.80;99.90;;;;;;4927584;29;20202;-85
2023/02/01 05:42:30;;;;;;;22.20;5.63;;;7.80;99.90;;;;;;4926571;29;20721;-81
2023/02/01 05:44:57;;;;;;;28.07;5.77;;;7.80;99.90;;;;;;4927435;29;20887;-81
2023/02/01 05:47:24;;;;;;;21.63;5.83;;;7.80;99.90;;;;;;4925933;29;20595;-83
2023/02/01 05:49:51;;;;;;;23.80;6.13;;;7.70;99.90;;;;;;4925937;29;20535;-80
2023/02/01 05:52:19;;;;;;;23.03;6.90;;;7.70;99.90;;;;;;4927169;29;20527;-81
2023/02/01 05:54:47;;;;;;;20.77;6.40;;;7.70;99.90;;;;;;4926292;29;20206;-81
2023/02/01 05:57:14;;;;;;;22.13;5.33;;;7.70;99.90;;;;;;4926521;29;20622;-82
2023/02/01 05:59:44;;;;;;;24.60;5.40;;;7.60;99.90;;;;;;4932619;29;20207;-81
2023/02/01 06:02:11;;;;;;;25.93;6.20;;;7.60;99.90;;;;;;4949400;28;20248;-81
2023/02/01 06:04:38;;;;;;;28.83;5.57;;;7.60;99.90;;;;;;4948522;29;20630;-79
2023/02/01 06:07:05;;;;;;;28.47;6.00;;;7.60;99.90;;;;;;4949896;29;20288;-80
2023/02/01 06:09:34;;;;;;;27.23;5.97;;;7.50;99.90;;;;;;4937676;28;20815;-82
2023/02/01 06:12:02;;;;;;;24.90;4.97;;;7.50;99.90;;;;;;4930314;29;20204;-80
2023/02/01 06:14:29;;;;;;;24.87;5.07;;;7.50;99.90;;;;;;4930187;29;20217;-81
2023/02/01 06:16:56;;;;;;;25.00;5.50;;;7.50;99.90;;;;;;4930179;29;20293;-79
2023/02/01 06:19:23;;;;;;;17.90;4.33;;;7.50;99.90;;;;;;4940585;28;20213;-80
2023/02/01 06:21:50;;;;;;;30.07;5.83;;;7.50;99.90;;;;;;4949293;29;20236;-79
2023/02/01 06:24:17;;;;;;;31.87;6.87;;;7.50;99.90;;;;;;4948251;29;20210;-79
2023/02/01 06:26:46;;;;;;;30.40;6.37;;;7.50;99.90;;;;;;4948863;29;20669;-78
2023/02/01 06:29:13;;;;;;;25.67;6.53;;;7.50;99.90;;;;;;4932420;29;20240;-81
2023/02/01 06:31:42;;;;;;;25.93;5.67;;;7.50;99.90;;;;;;4947985;29;20273;-79
2023/02/01 06:34:09;;;;;;;25.87;6.23;;;7.50;99.90;;;;;;4948526;28;20211;-80
2023/02/01 06:36:36;;;;;;;25.63;5.97;;;7.50;99.90;;;;;;4948682;29;20614;-78
2023/02/01 06:39:02;;;;;;;29.40;5.87;;;7.50;99.90;;;;;;4945469;29;20206;-79
2023/02/01 06:41:29;;;;;;;23.53;5.13;;;7.50;99.90;;;;;;4928912;29;20198;-78
2023/02/01 06:43:58;;;;;;;24.03;5.40;;;7.60;99.90;;;;;;4929760;29;20244;-76
2023/02/01 06:46:24;;;;;;;22.87;5.37;;;7.50;99.90;;;;;;4944156;29;20217;-76
2023/02/01 06:48:51;;;;;;;29.83;7.00;;;7.50;99.90;;;;;;4949107;29;20209;-81
2023/02/01 06:51:23;;;;;;;22.60;5.83;;;7.50;99.90;;;;;;4938055;29;20214;-77
2023/02/01 06:53:50;;;;;;;22.00;6.10;;;7.50;99.90;;;;;;4929004;29;20209;-80
2023/02/01 06:56:17;;;;;;;36.30;7.57;;;7.50;99.90;;;;;;4929761;29;20676;-83
2023/02/01 06:58:45;;;;;;;22.43;5.90;;;7.50;99.90;;;;;;4929321;29;20216;-79
2023/02/01 07:01:14;;;;;;;24.67;5.23;;;7.50;99.90;;;;;;4929432;29;20438;-79
2023/02/01 07:03:41;;;;;;;26.57;6.53;;;7.50;99.90;;;;;;4929198;29;20364;-81
2023/02/01 07:06:10;;;;;;;23.60;5.47;;;7.50;99.90;;;;;;4928965;29;20205;-79
2023/02/01 07:08:38;;;;;;;27.87;5.63;;;7.50;99.90;;;;;;4928688;29;20222;-79
2023/02/01 07:11:06;;;;;;;27.77;6.77;;;7.50;99.90;;;;;;4928660;29;20273;-79
2023/02/01 07:13:33;;;;;;;22.27;5.70;;;7.50;99.90;;;;;;4928138;29;20674;-79
2023/02/01 07:16:00;;;;;;;26.07;5.67;;;7.50;99.90;;;;;;4929403;29;20214;-79
2023/02/01 07:18:30;;;;;;;29.37;5.63;;;7.50;99.90;;;;;;4929658;29;20202;-81
2023/02/01 07:20:57;;;;;;;29.47;7.07;;;7.50;99.90;;;;;;4947015;28;20283;-77
2023/02/01 07:23:25;;;;;;;21.60;5.03;;;7.50;99.90;;;;;;4947115;29;20231;-76
2023/02/01 07:25:54;;;;;;;18.43;5.13;;;7.50;99.90;;;;;;4946953;29;20202;-80
2023/02/01 07:28:21;;;;;;;26.20;4.60;;;7.50;99.90;;;;;;4938925;28;20218;-80
2023/02/01 07:30:50;;;;;;;34.00;6.67;;;7.40;99.90;;;;;;4946915;29;20233;-78
2023/02/01 07:33:18;;;;;;;21.77;5.23;;;7.40;99.90;;;;;;4946895;28;20217;-80
2023/02/01 07:35:47;;;;;;;22.77;6.30;;;7.40;99.90;;;;;;4935053;29;20666;-77
2023/02/01 07:38:14;;;;;;;20.33;5.27;;;7.40;99.90;;;;;;4927850;29;20206;-79
2023/02/01 07:40:41;;;;;;;23.30;5.27;;;7.50;99.90;;;;;;4927867;29;20214;-79
2023/02/01 07:43:08;;;;;;;25.83;6.07;;;7.50;99.90;;;;;;4927478;29;20202;-79
2023/02/01 07:45:35;;;;;;;22.10;5.03;;;7.50;99.90;;;;;;4926950;29;20206;-79
2023/02/01 07:48:05;;;;;;;23.97;5.93;;;7.50;99.90;;;;;;4937518;28;20212;-78
2023/02/01 07:50:32;;;;;;;24.53;5.03;;;7.50;99.90;;;;;;4946302;28;20231;-78
2023/02/01 07:53:01;;;;;;;29.23;5.03;;;7.60;99.90;;;;;;4942762;28;20209;-78
2023/02/01 07:55:29;;;;;;;25.67;6.20;;;7.60;99.90;;;;;;4940254;29;20293;-78
2023/02/01 07:57:59;;;;;;;26.23;6.13;;;7.60;99.90;;;;;;4938929;28;20295;-77
2023/02/01 08:03:11;;;;;;;25.47;6.00;;;7.70;99.90;;;;;;4952651;28;20251;-78
2023/02/01 08:05:38;;;;;;;26.17;6.13;;;7.70;99.90;;;;;;4965682;28;20205;-79
2023/02/01 08:08:07;;;;;;;22.43;5.30;;;7.70;99.90;;;;;;4965930;28;20318;-78
2023/02/01 08:10:34;;;;;;;22.23;4.97;;;7.70;99.90;;;;;;4933567;28;20268;-77
2023/02/01 08:13:03;;;;;;;20.13;4.80;;;7.70;99.90;;;;;;4939027;28;20885;-79
2023/02/01 08:15:31;;;;;;;22.17;5.67;;;7.80;99.90;;;;;;4946218;29;20209;-79
2023/02/01 08:17:58;;;;;;;29.43;5.10;;;7.80;99.90;;;;;;4956719;28;20212;-78
2023/02/01 08:20:26;;;;;;;23.27;4.63;;;7.90;99.90;;;;;;4932714;28;20210;-79
2023/02/01 08:22:53;;;;;;;27.57;6.13;;;7.90;99.90;;;;;;4946330;28;20216;-79
2023/02/01 08:25:22;;;;;;;23.93;7.07;;;7.90;99.90;;;;;;4946614;28;20224;-79
2023/02/01 08:27:50;;;;;;;19.80;4.73;;;8.00;99.90;;;;;;4935257;28;20205;-81
2023/02/01 08:30:17;;;;;;;27.53;5.03;;;8.00;99.90;;;;;;4941216;29;20236;-79
2023/02/01 08:32:44;;;;;;;26.83;6.93;;;8.00;99.90;;;;;;4934139;28;20343;-81
2023/02/01 08:35:11;;;;;;;22.00;5.83;;;8.10;99.90;;;;;;4945410;29;20209;-79
2023/02/01 08:37:38;;;;;;;25.77;5.20;;;8.10;99.90;;;;;;4939569;28;20210;-79
2023/02/01 08:40:06;;;;;;;28.23;6.37;;;8.10;99.90;;;;;;4925949;29;20216;-80
2023/02/01 08:42:53;;;;;;;26.57;6.20;;;8.10;99.90;;;;;;4939172;28;20242;-80
2023/02/01 08:45:21;;;;;;;26.90;5.30;;;8.10;99.90;;;;;;4964295;28;20227;-79
2023/02/01 08:47:48;;;;;;;30.67;6.03;;;8.20;99.90;;;;;;4964469;28;20211;-80
2023/02/01 08:50:16;;;;;;;23.00;5.13;;;8.10;99.90;;;;;;4935647;28;20234;-81
2023/02/01 08:52:43;;;;;;;20.97;5.03;;;8.10;99.90;;;;;;4925436;29;20286;-80
2023/02/01 08:55:11;;;;;;;24.20;5.07;;;8.10;99.90;;;;;;4926072;29;20786;-78
2023/02/01 08:57:39;;;;;;;19.47;5.20;;;8.20;99.90;;;;;;4925263;29;20214;-79
2023/02/01 09:00:09;;;;;;;20.03;5.43;;;8.20;99.90;;;;;;4926239;29;20515;-78
2023/02/01 09:02:36;;;;;;;21.33;5.13;;;8.20;99.90;;;;;;4925378;28;20356;-80
2023/02/01 09:05:04;;;;;;;26.57;5.40;;;8.20;99.90;;;;;;4926090;29;20214;-81
2023/02/01 09:07:31;;;;;;;40.00;8.13;;;8.10;99.90;;;;;;4925432;29;20292;-81
2023/02/01 09:10:00;;;;;;;24.17;5.30;;;8.10;99.90;;;;;;4925407;29;20234;-79
2023/02/01 09:12:28;;;;;;;31.20;6.17;;;8.10;99.90;;;;;;4924439;29;20217;-79
2023/02/01 09:14:56;;;;;;;25.70;6.10;;;8.10;99.90;;;;;;4942347;29;20213;-81
2023/02/01 09:17:23;;;;;;;25.10;6.10;;;8.10;99.90;;;;;;4946510;29;20204;-81
2023/02/01 09:19:50;;;;;;;20.63;5.13;;;8.10;99.90;;;;;;4945308;29;20206;-81
2023/02/01 09:22:17;;;;;;;27.57;5.93;;;8.10;99.90;;;;;;4939457;29;20661;-82
2023/02/01 09:24:44;;;;;;;25.33;5.73;;;8.10;99.90;;;;;;4932577;28;20213;-81
2023/02/01 09:27:11;;;;;;;21.70;6.50;;;8.20;99.90;;;;;;4939080;28;20217;-80
2023/02/01 09:29:38;;;;;;;23.27;5.50;;;8.10;99.90;;;;;;4938880;28;20284;-80
2023/02/01 09:32:07;;;;;;;27.07;5.63;;;8.10;99.90;;;;;;4930780;28;20257;-79
2023/02/01 09:34:34;;;;;;;19.60;5.40;;;8.10;99.90;;;;;;4942783;28;20451;-80
2023/02/01 09:37:01;;;;;;;25.87;5.60;;;8.10;99.90;;;;;;4944571;28;20209;-81
2023/02/01 09:39:29;;;;;;;27.93;6.63;;;8.00;99.90;;;;;;4953906;28;20212;-82
2023/02/01 09:42:08;;;;;;;29.83;6.33;;;8.00;99.90;;;;;;4947826;29;20208;-81
2023/02/01 09:44:56;;;;;;;28.03;6.83;;;8.00;99.90;;;;;;4950409;28;20975;-81
2023/02/01 09:47:26;;;;;;;23.63;5.13;;;8.00;99.90;;;;;;4940916;29;20224;-80
2023/02/01 09:49:59;;;;;;;21.10;5.63;;;7.90;99.90;;;;;;4945381;28;20625;-79
2023/02/01 09:52:32;;;;;;;31.97;6.33;;;7.90;99.90;;;;;;4948735;29;20291;-79
2023/02/01 09:55:02;;;;;;;28.73;5.70;;;7.90;99.90;;;;;;4958456;28;20197;-79
2023/02/01 09:57:40;;;;;;;28.27;6.00;;;7.90;99.90;;;;;;4942671;28;20212;-79
2023/02/01 10:00:21;;;;;;;32.03;6.13;;;7.90;99.90;;;;;;4965353;28;20204;-79
2023/02/01 10:02:50;;;;;;;24.33;6.97;;;7.90;99.90;;;;;;4944984;28;20256;-79
2023/02/01 10:05:26;;;;;;;27.97;5.87;;;7.90;99.90;;;;;;4946883;29;20316;-80
2023/02/01 10:08:01;;;;;;;26.03;7.27;;;7.90;99.90;;;;;;4948837;29;20373;-81
2023/02/01 10:10:35;;;;;;;25.77;6.17;;;7.90;99.90;;;;;;4947063;29;20227;-80
2023/02/01 10:13:15;;;;;;;34.07;7.00;;;8.00;99.90;;;;;;4939272;28;20209;-79
2023/02/01 10:16:00;;;;;;;31.50;6.53;;;8.00;99.90;;;;;;4966634;28;20200;-78
2023/02/01 10:18:40;;;;;;;30.27;7.37;;;8.00;99.90;;;;;;4946608;28;20284;-80
2023/02/01 10:21:18;;;;;;;30.03;7.23;;;8.10;99.90;;;;;;4946405;29;20284;-80
2023/02/01 10:24:24;;;;;;;25.33;5.73;;;8.10;99.90;;;;;;4946020;28;20502;-79
2023/02/01 10:26:56;;;;;;;27.07;6.43;;;8.20;99.90;;;;;;4939099;29;20209;-80
2023/02/01 10:29:29;;;;;;;27.03;5.87;;;8.20;99.90;;;;;;4959068;28;20212;-79
2023/02/01 10:31:57;;;;;;;23.87;6.67;;;8.20;99.90;;;;;;4942464;28;20210;-80
2023/02/01 10:34:28;;;;;;;22.23;5.87;;;8.20;99.90;;;;;;4939459;28;20220;-80
2023/02/01 10:36:58;;;;;;;35.73;5.80;;;8.20;99.90;;;;;;4946570;29;20190;-77
2023/02/01 10:39:25;;;;;;;33.43;5.80;;;8.20;99.90;;;;;;4944197;28;20219;-79
2023/02/01 10:41:52;;;;;;;24.30;5.33;;;8.30;99.90;;;;;;4928005;29;20224;-79
2023/02/01 10:44:23;;;;;;;27.60;5.93;;;8.30;99.90;;;;;;4936579;28;20220;-78
2023/02/01 10:46:50;;;;;;;27.40;6.80;;;8.30;99.90;;;;;;4947615;29;20197;-81
2023/02/01 10:49:20;;;;;;;24.20;5.50;;;8.30;99.90;;;;;;4956771;28;20201;-80
2023/02/01 10:51:54;;;;;;;20.33;5.27;;;8.40;99.90;;;;;;4946810;28;20941;-79
2023/02/01 10:54:32;;;;;;;20.83;4.83;;;8.40;99.90;;;;;;4946090;28;20284;-80
2023/02/01 10:56:59;;;;;;;32.20;6.47;;;8.40;99.90;;;;;;4947393;29;20283;-78
2023/02/01 10:59:30;;;;;;;30.13;5.13;;;8.40;99.90;;;;;;4931348;29;20251;-79
2023/02/01 11:02:02;;;;;;;28.30;6.07;;;8.40;99.90;;;;;;4927955;29;20341;-80
2023/02/01 11:04:34;;;;;;;31.23;6.40;;;8.40;99.90;;;;;;4927321;29;20208;-80
2023/02/01 11:07:13;;;;;;;32.73;7.53;;;8.30;99.90;;;;;;4927055;29;20205;-79
2023/02/01 11:09:42;;;;;;;26.47;6.27;;;8.30;99.90;;;;;;4926884;29;20518;-79
2023/02/01 11:12:29;;;;;;;25.87;5.30;;;8.30;99.90;;;;;;4945171;28;20233;-77
2023/02/01 11:15:01;;;;;;;24.90;6.57;;;8.30;99.90;;;;;;4951243;28;20185;-79
2023/02/01 11:17:33;;;;;;;29.37;6.70;;;8.40;99.90;;;;;;4941027;28;20210;-78
2023/02/01 11:20:03;;;;;;;22.73;6.07;;;8.40;99.90;;;;;;4937484;28;20228;-79
2023/02/01 11:22:32;;;;;;;33.97;6.53;;;8.50;99.90;;;;;;4965114;28;20280;-78
2023/02/01 11:25:02;;;;;;;26.37;6.37;;;8.50;99.90;;;;;;4932474;28;20229;-79
2023/02/01 11:27:29;;;;;;;27.87;5.93;;;8.50;99.90;;;;;;4946305;29;20193;-80
2023/02/01 11:29:59;;;;;;;30.40;5.80;;;8.50;99.90;;;;;;4947301;29;20212;-78
2023/02/01 11:32:27;;;;;;;23.47;5.60;;;8.60;99.90;;;;;;4939547;29;20222;-79
2023/02/01 11:34:58;;;;;;;24.60;6.00;;;8.60;99.90;;;;;;4926109;29;20217;-80
2023/02/01 11:37:28;;;;;;;29.23;6.43;;;8.60;99.90;;;;;;4926902;29;20202;-79
2023/02/01 11:39:58;;;;;;;30.43;6.40;;;8.60;99.90;;;;;;4926890;29;20226;-79
2023/02/01 11:42:27;;;;;;;27.03;6.27;;;8.60;99.90;;;;;;4926628;29;20218;-81
2023/02/01 11:45:18;;;;;;;23.67;5.77;;;8.60;99.90;;;;;;4928411;28;20324;-80
2023/02/01 11:47:46;;;;;;;27.23;5.50;;;8.60;99.90;;;;;;4944730;28;20304;-78
2023/02/01 11:50:17;;;;;;;23.50;5.60;;;8.60;99.90;;;;;;4926164;29;20650;-81
2023/02/01 11:53:04;;;;;;;22.83;5.07;;;8.70;99.90;;;;;;4925719;29;20342;-80
2023/02/01 11:55:53;;;;;;;25.77;5.10;;;8.70;99.90;;;;;;4925096;29;20289;-80
2023/02/01 11:58:47;;;;;;;22.77;5.30;;;8.70;99.90;;;;;;4942340;28;20585;-79
2023/02/01 12:01:38;;;;;;;31.33;6.43;;;8.80;99.90;;;;;;4925456;29;20285;-79
2023/02/01 12:04:44;;;;;;;25.80;6.00;;;8.90;99.90;;;;;;4934794;29;20201;-81
2023/02/01 12:07:17;;;;;;;26.87;6.10;;;8.90;99.90;;;;;;4945135;29;20443;-80
2023/02/01 12:09:54;;;;;;;22.67;4.80;;;8.90;99.90;;;;;;4946659;28;20997;-80
2023/02/01 12:12:29;;;;;;;36.27;8.07;;;8.90;99.90;;;;;;4947218;29;20241;-78
2023/02/01 12:15:12;;;;;;;24.23;5.70;;;8.90;99.90;;;;;;4927800;29;20206;-79
2023/02/01 12:17:52;;;;;;;32.97;6.30;;;8.90;99.90;;;;;;4927335;29;20830;-77
2023/02/01 12:20:52;;;;;;;28.47;6.13;;;9.00;99.90;;;;;;4936778;28;20205;-77
2023/02/01 12:23:35;;;;;;;29.13;5.83;;;9.00;99.90;;;;;;4925388;28;20209;-79
2023/02/01 12:26:22;;;;;;;29.27;6.67;;;9.10;99.90;;;;;;4925771;29;20205;-83
2023/02/01 12:29:15;;;;;;;22.97;5.00;;;9.20;99.90;;;;;;4934158;29;20205;-80
2023/02/01 12:32:09;;;;;;;30.07;8.63;;;9.20;99.90;;;;;;4943986;29;20213;-79
2023/02/01 12:34:57;;;;;;;30.40;5.60;;;9.20;99.90;;;;;;4945843;28;20292;-79
2023/02/01 12:37:40;;;;;;;27.80;5.77;;;9.10;99.90;;;;;;4943943;28;20240;-80
2023/02/01 12:40:21;;;;;;;22.33;5.87;;;9.20;99.90;;;;;;4935214;29;20205;-81
2023/02/01 12:42:54;;;;;;;24.20;6.73;;;9.20;99.90;;;;;;4936733;28;20319;-81
2023/02/01 12:45:31;;;;;;;24.87;5.80;;;9.10;99.90;;;;;;4935455;28;20197;-78
2023/02/01 12:48:09;;;;;;;33.57;6.67;;;9.10;99.90;;;;;;4945480;29;20196;-80
2023/02/01 12:50:44;;;;;;;27.40;5.93;;;9.10;99.90;;;;;;4925112;29;20668;-83
2023/02/01 12:53:20;;;;;;;26.60;7.40;;;9.00;99.90;;;;;;4925711;29;20256;-81
2023/02/01 12:55:50;;;;;;;29.47;5.73;;;9.00;99.90;;;;;;4925447;29;20197;-81
2023/02/01 12:58:23;;;;;;;25.83;6.63;;;9.00;99.90;;;;;;4925056;29;20208;-81
2023/02/01 13:00:59;;;;;;;32.17;6.30;;;9.00;99.90;;;;;;4925100;29;20665;-80
2023/02/01 13:03:35;;;;;;;25.97;6.40;;;9.00;99.90;;;;;;4925404;29;20293;-81
2023/02/01 13:06:10;;;;;;;24.97;5.33;;;9.10;99.90;;;;;;4925856;29;20205;-82
2023/02/01 13:08:44;;;;;;;35.13;6.97;;;9.10;99.90;;;;;;4930145;29;20325;-83
2023/02/01 13:11:17;;;;;;;25.97;5.00;;;9.20;99.90;;;;;;4931719;29;20862;-82
2023/02/01 13:13:53;;;;;;;27.10;6.57;;;9.30;99.90;;;;;;4931281;29;20293;-83
2023/02/01 13:16:28;;;;;;;29.27;5.90;;;9.40;99.90;;;;;;4931845;29;20205;-83
2023/02/01 13:19:01;;;;;;;31.53;5.80;;;9.50;99.90;;;;;;4931754;29;20205;-81
2023/02/01 13:21:34;;;;;;;23.37;6.23;;;9.60;99.90;;;;;;4950854;29;20586;-82
2023/02/01 13:24:01;;;;;;;30.83;6.67;;;9.60;99.90;;;;;;4949425;28;20221;-84
2023/02/01 13:26:28;;;;;;;28.40;6.03;;;9.60;99.90;;;;;;4949489;28;20665;-83
2023/02/01 13:28:59;;;;;;;28.53;5.93;;;9.60;99.90;;;;;;4939811;29;20781;-83